Time;durP1;ratioP1;P1;durP2;ratioP2;P2;SDS_P1;SDS_P2;PMS_P1;PMS_P2;Temp;Humidity;BMP_temperature;BMP_pressure;BME280_temperature;BME280_humidity;BME280_pressure;Samples;Min_cycle;Max_cycle;Signal;HPM_P1;HPM_P2
2022/03/10 00:00:57;;;;;;;6.07;4.20;;;;;;;-2.01;83.91;95280.63;5030868;28;20674;-64
2022/03/10 00:03:42;;;;;;;6.83;4.30;;;;;;;-1.86;83.05;95282.28;5026013;28;20220;-64
2022/03/10 00:06:28;;;;;;;6.43;5.10;;;;;;;-1.70;82.61;95280.16;5031252;28;20667;-64
2022/03/10 00:09:14;;;;;;;7.30;5.17;;;;;;;-1.60;82.66;95289.41;5026462;28;20206;-64
2022/03/10 00:12:01;;;;;;;6.50;4.90;;;;;;;-1.57;82.33;95292.13;5023514;28;20662;-64
2022/03/10 00:14:47;;;;;;;8.80;5.03;;;;;;;-1.94;82.67;95296.75;5025695;28;20219;-64
2022/03/10 00:17:33;;;;;;;7.63;5.20;;;;;;;-2.06;83.55;95280.94;5031466;28;20222;-64
2022/03/10 00:20:20;;;;;;;6.30;4.60;;;;;;;-2.02;83.90;95287.09;5029581;28;20265;-65
2022/03/10 00:23:06;;;;;;;8.73;5.70;;;;;;;-1.97;83.61;95292.09;5009367;28;20199;-65
2022/03/10 00:25:52;;;;;;;7.77;5.17;;;;;;;-2.00;83.32;95289.44;5020578;28;20640;-65
2022/03/10 00:28:38;;;;;;;13.37;4.70;;;;;;;-1.91;82.56;95301.34;5024654;28;20211;-65
2022/03/10 00:31:24;;;;;;;7.07;5.13;;;;;;;-2.03;83.25;95290.13;5032092;28;20202;-65
2022/03/10 00:34:10;;;;;;;5.57;4.20;;;;;;;-2.23;84.39;95292.22;5025006;28;20661;-65
2022/03/10 00:36:56;;;;;;;6.83;4.57;;;;;;;-2.35;86.14;95300.50;5029076;28;20191;-65
2022/03/10 00:39:42;;;;;;;7.27;4.83;;;;;;;-2.37;86.77;95302.00;5030019;28;20198;-65
2022/03/10 00:42:34;;;;;;;6.93;4.73;;;;;;;-2.47;86.58;95296.16;5028599;28;20202;-65
2022/03/10 00:45:20;;;;;;;7.37;5.20;;;;;;;-2.51;87.34;95303.38;5029594;28;20203;-65
2022/03/10 00:48:07;;;;;;;6.97;4.97;;;;;;;-2.54;88.33;95306.78;5016860;28;20223;-65
2022/03/10 00:50:52;;;;;;;8.03;4.97;;;;;;;-2.52;87.87;95304.50;5031604;28;20195;-65
2022/03/10 00:53:38;;;;;;;7.93;5.20;;;;;;;-2.61;88.25;95314.69;5006981;28;20718;-65
2022/03/10 00:56:24;;;;;;;8.10;5.07;;;;;;;-2.72;89.36;95311.13;5014023;28;20195;-65
2022/03/10 00:59:10;;;;;;;5.83;4.70;;;;;;;-2.65;89.28;95307.78;5027838;28;20213;-64
2022/03/10 01:01:56;;;;;;;8.33;5.20;;;;;;;-2.68;89.80;95305.84;5011951;28;20674;-65
2022/03/10 01:04:43;;;;;;;7.10;5.37;;;;;;;-2.31;89.64;95301.31;5008508;28;20227;-65
2022/03/10 01:07:29;;;;;;;11.17;5.07;;;;;;;-2.30;86.91;95302.06;5038391;28;20234;-65
2022/03/10 01:10:16;;;;;;;9.47;5.27;;;;;;;-2.54;87.71;95304.09;5025076;28;20674;-65
2022/03/10 01:13:03;;;;;;;6.57;5.47;;;;;;;-2.59;88.48;95309.00;5011046;28;20219;-65
2022/03/10 01:15:49;;;;;;;9.73;4.93;;;;;;;-2.65;88.88;95313.88;5026245;28;20711;-65
2022/03/10 01:18:36;;;;;;;7.97;5.10;;;;;;;-2.61;88.57;95301.34;5028914;28;20218;-65
2022/03/10 01:21:22;;;;;;;6.20;4.67;;;;;;;-2.53;89.85;95310.22;5009530;28;20300;-64
2022/03/10 01:24:08;;;;;;;7.33;5.30;;;;;;;-2.73;89.00;95306.91;5028421;28;20203;-64
2022/03/10 01:26:54;;;;;;;8.33;5.50;;;;;;;-2.87;90.61;95309.38;5020957;28;20250;-65
2022/03/10 01:29:40;;;;;;;8.83;5.17;;;;;;;-2.92;90.40;95312.38;5014161;28;20206;-64
2022/03/10 01:32:26;;;;;;;7.73;5.40;;;;;;;-2.94;90.71;95306.66;5028786;28;20686;-64
2022/03/10 01:35:12;;;;;;;9.67;5.60;;;;;;;-2.88;90.81;95304.41;5010547;28;20545;-65
2022/03/10 01:37:58;;;;;;;8.27;5.73;;;;;;;-2.96;91.61;95310.78;5029419;28;20233;-61
2022/03/10 01:40:44;;;;;;;13.67;5.57;;;;;;;-3.04;91.84;95309.94;5029913;28;20265;-61
2022/03/10 01:43:30;;;;;;;8.07;5.40;;;;;;;-2.96;92.16;95300.88;5025339;28;20227;-61
2022/03/10 01:46:16;;;;;;;8.73;5.07;;;;;;;-3.07;92.31;95286.59;5021163;28;20198;-62
2022/03/10 01:49:04;;;;;;;7.27;4.63;;;;;;;-3.00;92.84;95289.38;5029136;28;20187;-61
2022/03/10 01:51:50;;;;;;;7.73;5.50;;;;;;;-3.03;92.77;95282.09;5030656;28;20245;-61
2022/03/10 01:54:36;;;;;;;7.00;4.70;;;;;;;-2.86;91.25;95278.09;5020552;28;20226;-61
2022/03/10 01:57:24;;;;;;;7.80;5.07;;;;;;;-2.79;91.16;95278.97;5022289;28;20240;-65
2022/03/10 02:00:11;;;;;;;7.93;5.13;;;;;;;-2.97;91.54;95285.97;5023455;28;20206;-64
2022/03/10 02:02:57;;;;;;;8.60;5.40;;;;;;;-3.04;92.39;95277.09;5026924;28;20290;-64
2022/03/10 02:05:43;;;;;;;6.90;5.07;;;;;;;-2.87;92.07;95271.97;5010320;28;20718;-65
2022/03/10 02:11:34;;;;;;;9.00;5.33;;;;;;;-3.18;92.43;95276.91;5028308;28;20203;-61
2022/03/10 02:17:24;;;;;;;11.03;5.30;;;;;;;-3.26;93.71;95284.06;5024177;28;20278;-64
2022/03/10 02:20:11;;;;;;;9.43;5.23;;;;;;;-3.25;94.07;95280.25;5029413;28;20194;-64
2022/03/10 02:22:57;;;;;;;6.90;4.77;;;;;;;-3.24;93.50;95287.13;5026093;28;20202;-64
2022/03/10 02:25:43;;;;;;;7.23;5.10;;;;;;;-3.17;93.93;95278.47;5024943;28;20219;-64
2022/03/10 02:28:29;;;;;;;8.47;5.23;;;;;;;-3.30;93.49;95296.56;5027833;28;20257;-64
2022/03/10 02:31:15;;;;;;;9.80;5.10;;;;;;;-3.27;94.63;95295.06;5029071;28;20191;-64
2022/03/10 02:34:02;;;;;;;7.87;4.90;;;;;;;-3.03;92.79;95279.41;5027113;28;20199;-64
2022/03/10 02:36:47;;;;;;;7.70;5.00;;;;;;;-3.32;93.16;95293.50;5028043;28;20290;-64
2022/03/10 02:39:34;;;;;;;7.63;4.90;;;;;;;-3.36;95.49;95294.56;5018501;28;21098;-64
2022/03/10 02:42:20;;;;;;;6.53;5.17;;;;;;;-3.25;94.84;95290.94;5027109;28;20750;-64
2022/03/10 02:45:07;;;;;;;8.37;5.63;;;;;;;-3.38;95.08;95300.28;5023695;28;20223;-64
2022/03/10 02:47:53;;;;;;;6.53;5.40;;;;;;;-3.36;95.11;95298.00;5009548;28;20281;-64
2022/03/10 02:50:40;;;;;;;7.17;4.90;;;;;;;-3.30;95.53;95293.91;5013268;28;20206;-64
2022/03/10 02:53:26;;;;;;;9.77;5.57;;;;;;;-3.19;93.86;95294.06;5027760;28;20278;-64
2022/03/10 02:56:11;;;;;;;7.07;4.93;;;;;;;-3.37;95.26;95293.78;5020550;28;20211;-64
2022/03/10 02:58:57;;;;;;;5.87;4.57;;;;;;;-3.41;95.86;95292.22;5027518;28;20289;-64
2022/03/10 03:01:43;;;;;;;8.27;5.33;;;;;;;-3.44;96.98;95307.03;5028996;28;20353;-64
2022/03/10 03:04:29;;;;;;;8.43;5.33;;;;;;;-3.40;97.20;95297.19;5027154;28;20223;-65
2022/03/10 03:07:15;;;;;;;6.87;5.30;;;;;;;-3.34;97.17;95303.75;5015783;28;20553;-64
2022/03/10 03:10:02;;;;;;;6.23;4.90;;;;;;;-3.38;95.62;95302.16;5028183;28;20214;-64
2022/03/10 03:12:50;;;;;;;6.67;4.73;;;;;;;-3.33;96.42;95307.97;5033187;28;20739;-64
2022/03/10 03:15:36;;;;;;;9.63;5.97;;;;;;;-3.39;95.38;95311.31;5030002;28;20238;-64
2022/03/10 03:18:22;;;;;;;7.63;5.33;;;;;;;-3.63;97.04;95306.34;5032233;28;20218;-64
2022/03/10 03:21:08;;;;;;;13.53;4.70;;;;;;;-3.80;98.12;95296.91;5032580;28;20210;-63
2022/03/10 03:23:54;;;;;;;10.87;5.23;;;;;;;-3.80;98.93;95316.34;5026723;28;20616;-64
2022/03/10 03:26:40;;;;;;;6.37;5.30;;;;;;;-3.84;99.28;95323.53;5024006;28;20289;-64
2022/03/10 03:29:26;;;;;;;7.30;5.13;;;;;;;-3.84;100.00;95315.53;5027258;28;20199;-64
2022/03/10 03:32:13;;;;;;;7.33;5.27;;;;;;;-3.19;99.03;95312.75;5032797;28;20202;-64
2022/03/10 03:34:59;;;;;;;7.57;5.10;;;;;;;-3.23;97.21;95323.38;5028670;28;20223;-64
2022/03/10 03:37:45;;;;;;;7.10;5.23;;;;;;;-3.06;94.80;95319.44;5022711;28;20268;-65
2022/03/10 03:40:31;;;;;;;6.07;4.87;;;;;;;-3.36;95.80;95326.63;5028110;28;20560;-64
2022/03/10 03:43:17;;;;;;;6.67;4.90;;;;;;;-3.69;97.03;95324.53;5030719;28;20689;-65
2022/03/10 03:46:03;;;;;;;6.87;4.83;;;;;;;-3.66;100.00;95329.16;5026038;28;20214;-64
2022/03/10 03:48:49;;;;;;;7.13;5.17;;;;;;;-3.87;100.00;95328.81;5020854;28;20539;-65
2022/03/10 03:51:36;;;;;;;8.50;5.50;;;;;;;-4.00;100.00;95332.75;5030778;28;20271;-64
2022/03/10 03:54:24;;;;;;;6.63;5.10;;;;;;;-3.48;100.00;95332.91;5007776;28;20210;-65
2022/03/10 03:57:10;;;;;;;8.90;5.27;;;;;;;-3.23;99.04;95339.41;5026527;28;20199;-64
2022/03/10 03:59:56;;;;;;;6.83;5.43;;;;;;;-3.40;96.63;95339.13;5025923;28;20281;-65
2022/03/10 04:02:42;;;;;;;6.67;5.10;;;;;;;-3.26;98.02;95345.47;5017968;28;20298;-64
2022/03/10 04:05:28;;;;;;;11.33;6.00;;;;;;;-3.27;97.01;95343.91;5019340;28;20230;-64
2022/03/10 04:08:14;;;;;;;13.87;5.63;;;;;;;-3.32;95.95;95338.88;5035707;28;20227;-65
2022/03/10 04:11:00;;;;;;;8.93;4.97;;;;;;;-3.75;97.42;95350.75;5031939;28;20332;-65
2022/03/10 04:13:46;;;;;;;7.97;5.57;;;;;;;-3.57;99.54;95361.75;5008348;28;20203;-65
2022/03/10 04:16:33;;;;;;;7.70;5.03;;;;;;;-3.60;99.34;95348.31;5020600;28;20714;-64
2022/03/10 04:19:19;;;;;;;7.23;5.43;;;;;;;-3.24;99.33;95358.47;5031320;28;20195;-66
2022/03/10 04:22:05;;;;;;;7.90;5.43;;;;;;;-3.32;97.05;95352.22;5030755;28;20577;-64
2022/03/10 04:24:50;;;;;;;7.97;5.30;;;;;;;-3.44;97.30;95368.44;5030838;28;20639;-65
2022/03/10 04:27:37;;;;;;;9.07;5.13;;;;;;;-3.22;97.19;95362.31;5037295;28;20276;-65
2022/03/10 04:30:23;;;;;;;8.37;5.20;;;;;;;-3.78;97.25;95367.47;5030036;28;20704;-65
2022/03/10 04:33:09;;;;;;;5.77;4.67;;;;;;;-3.83;99.21;95367.75;5025569;28;20278;-65
2022/03/10 04:35:56;;;;;;;6.17;5.27;;;;;;;-3.68;98.96;95368.03;5030114;28;20301;-65
2022/03/10 04:38:42;;;;;;;7.13;5.23;;;;;;;-3.77;98.56;95368.25;5028320;28;20191;-64
2022/03/10 04:41:28;;;;;;;8.00;5.30;;;;;;;-3.97;99.74;95361.41;5025801;28;20195;-65
2022/03/10 04:44:14;;;;;;;7.80;5.53;;;;;;;-4.23;100.00;95372.72;5021848;28;20221;-64
2022/03/10 04:47:00;;;;;;;6.80;5.40;;;;;;;-4.27;100.00;95365.75;5013259;28;20303;-65
2022/03/10 04:49:46;;;;;;;7.00;5.40;;;;;;;-4.05;100.00;95373.81;5015768;28;20199;-64
2022/03/10 04:52:32;;;;;;;8.50;5.90;;;;;;;-4.18;100.00;95367.09;5026958;28;20627;-64
2022/03/10 04:55:18;;;;;;;13.60;5.63;;;;;;;-4.18;100.00;95353.00;5026314;28;20842;-64
2022/03/10 04:58:05;;;;;;;9.17;5.77;;;;;;;-4.25;100.00;95366.19;4999440;28;20690;-65
2022/03/10 05:00:51;;;;;;;8.87;5.50;;;;;;;-4.14;100.00;95369.84;5027136;28;20303;-65
2022/03/10 05:03:37;;;;;;;7.53;5.40;;;;;;;-4.33;100.00;95372.50;5011195;28;20614;-65
2022/03/10 05:06:23;;;;;;;7.03;5.30;;;;;;;-4.18;100.00;95359.13;5031843;28;20198;-65
2022/03/10 05:09:09;;;;;;;11.27;5.13;;;;;;;-4.08;100.00;95358.53;5021839;28;20749;-65
2022/03/10 05:11:55;;;;;;;7.90;5.53;;;;;;;-4.34;100.00;95355.75;5028752;28;20238;-65
2022/03/10 05:14:41;;;;;;;9.20;5.77;;;;;;;-4.44;100.00;95350.19;5026213;28;20302;-64
2022/03/10 05:17:27;;;;;;;9.40;5.60;;;;;;;-4.51;100.00;95360.72;5040851;28;20210;-64
2022/03/10 05:20:14;;;;;;;7.23;4.90;;;;;;;-4.49;100.00;95361.13;5032127;28;20201;-64
2022/03/10 05:23:02;;;;;;;9.13;5.80;;;;;;;-4.36;100.00;95355.31;5008171;28;20214;-64
2022/03/10 05:25:49;;;;;;;8.73;6.00;;;;;;;-4.43;100.00;95357.84;5027398;28;20728;-64
2022/03/10 05:28:34;;;;;;;9.17;6.00;;;;;;;-4.56;100.00;95358.31;5030399;28;20218;-65
2022/03/10 05:31:20;;;;;;;10.20;5.67;;;;;;;-4.60;100.00;95355.59;5028086;28;20658;-65
2022/03/10 05:34:07;;;;;;;8.77;5.97;;;;;;;-4.66;100.00;95349.00;5030171;28;20199;-65
2022/03/10 05:36:53;;;;;;;8.37;5.70;;;;;;;-4.65;100.00;95353.22;5028042;28;20223;-65
2022/03/10 05:39:39;;;;;;;6.70;5.00;;;;;;;-4.52;100.00;95353.84;5027255;28;20257;-65
2022/03/10 05:42:25;;;;;;;10.13;6.20;;;;;;;-4.51;100.00;95356.16;5026122;28;20199;-60
2022/03/10 05:45:13;;;;;;;10.50;5.57;;;;;;;-4.62;100.00;95359.72;5014122;28;20229;-61
2022/03/10 05:47:58;;;;;;;9.10;5.80;;;;;;;-4.49;100.00;95358.47;5026300;28;20311;-61
2022/03/10 05:50:44;;;;;;;9.53;5.47;;;;;;;-4.44;100.00;95353.63;5025860;28;20201;-61
2022/03/10 05:53:30;;;;;;;11.03;6.37;;;;;;;-4.42;100.00;95350.63;5013013;28;20586;-61
2022/03/10 05:56:17;;;;;;;8.00;5.80;;;;;;;-4.58;100.00;95360.59;5023735;28;20229;-61
2022/03/10 05:59:03;;;;;;;8.60;5.73;;;;;;;-4.36;100.00;95352.66;5026024;28;20242;-61
2022/03/10 06:01:49;;;;;;;12.07;6.80;;;;;;;-4.20;100.00;95363.25;5030211;28;20645;-61
2022/03/10 06:04:35;;;;;;;9.87;5.63;;;;;;;-4.39;100.00;95357.91;5013149;28;20214;-61
2022/03/10 06:07:21;;;;;;;6.43;5.63;;;;;;;-4.22;100.00;95360.16;5033841;28;20824;-65
2022/03/10 06:10:07;;;;;;;9.47;6.47;;;;;;;-4.16;100.00;95366.75;5026513;28;20242;-65
2022/03/10 06:12:55;;;;;;;8.00;5.63;;;;;;;-4.26;100.00;95362.00;5027097;28;20203;-61
2022/03/10 06:15:40;;;;;;;10.90;6.07;;;;;;;-4.26;100.00;95362.75;5032384;28;20222;-61
2022/03/10 06:18:26;;;;;;;12.07;6.13;;;;;;;-4.21;100.00;95364.38;5025001;28;20195;-61
2022/03/10 06:21:12;;;;;;;7.77;5.43;;;;;;;-4.12;100.00;95360.34;5010353;28;20221;-61
2022/03/10 06:23:58;;;;;;;10.37;5.70;;;;;;;-4.02;100.00;95361.69;5028613;28;20206;-61
2022/03/10 06:26:44;;;;;;;9.70;6.43;;;;;;;-3.47;100.00;95371.03;5026516;28;20199;-61
2022/03/10 06:29:30;;;;;;;15.70;6.23;;;;;;;-3.38;100.00;95367.03;5028584;28;20213;-61
2022/03/10 06:32:18;;;;;;;8.73;6.20;;;;;;;-3.21;97.98;95368.44;5011572;28;20228;-61
2022/03/10 06:35:05;;;;;;;10.07;6.03;;;;;;;-3.71;99.73;95367.59;5024135;28;20239;-61
2022/03/10 06:37:51;;;;;;;12.07;7.30;;;;;;;-3.39;99.48;95373.47;5014962;28;20567;-61
2022/03/10 06:40:37;;;;;;;13.10;8.07;;;;;;;-3.09;100.00;95368.22;5015600;28;20648;-61
2022/03/10 06:43:23;;;;;;;10.17;7.33;;;;;;;-2.85;97.69;95379.28;5017214;28;20674;-61
2022/03/10 06:46:09;;;;;;;13.30;8.47;;;;;;;-2.63;96.53;95375.78;5033367;28;20588;-61
2022/03/10 06:48:55;;;;;;;12.57;7.73;;;;;;;-2.46;95.62;95366.44;5033304;28;20293;-61
2022/03/10 06:51:41;;;;;;;13.07;7.70;;;;;;;-2.28;95.12;95372.81;5032016;28;20198;-61
2022/03/10 06:54:27;;;;;;;9.17;6.83;;;;;;;-2.00;94.11;95365.09;5031771;28;20245;-61
2022/03/10 06:57:14;;;;;;;16.97;6.50;;;;;;;-1.99;91.39;95360.53;5027026;28;20598;-61
2022/03/10 07:00:01;;;;;;;11.37;7.10;;;;;;;-1.76;91.17;95367.28;5032676;28;20273;-61
2022/03/10 07:02:47;;;;;;;10.10;6.57;;;;;;;-1.49;89.62;95362.56;5034545;28;20222;-61
2022/03/10 07:05:33;;;;;;;10.23;7.33;;;;;;;-1.31;88.11;95352.78;5025229;28;20230;-61
2022/03/10 07:08:19;;;;;;;14.67;7.40;;;;;;;-1.11;87.91;95354.09;5043284;28;20215;-61
2022/03/10 07:11:05;;;;;;;12.50;7.33;;;;;;;-0.88;86.93;95354.63;5024367;28;20191;-61
2022/03/10 07:13:52;;;;;;;13.40;7.17;;;;;;;-0.79;86.32;95344.38;5015638;28;20230;-61
2022/03/10 07:16:37;;;;;;;9.17;6.37;;;;;;;-0.73;85.70;95350.16;5018936;28;20688;-61
2022/03/10 07:19:23;;;;;;;10.97;6.90;;;;;;;-0.63;85.71;95342.16;5017173;28;20218;-62
2022/03/10 07:22:09;;;;;;;8.70;6.17;;;;;;;-0.51;85.59;95343.78;5027942;28;20283;-62
2022/03/10 07:24:55;;;;;;;7.67;5.60;;;;;;;-0.57;86.42;95351.41;5018069;28;20276;-61
2022/03/10 07:27:41;;;;;;;9.13;5.83;;;;;;;-0.42;85.82;95344.97;5030439;28;20734;-61
2022/03/10 07:30:27;;;;;;;8.00;6.43;;;;;;;-0.17;84.98;95343.16;5028777;28;20670;-65
2022/03/10 07:33:13;;;;;;;12.70;6.47;;;;;;;0.03;83.24;95348.22;5018191;28;20195;-65
2022/03/10 07:35:59;;;;;;;13.07;6.30;;;;;;;0.01;79.91;95337.84;5017146;28;20211;-65
2022/03/10 07:38:45;;;;;;;8.37;5.93;;;;;;;0.34;78.15;95352.91;5021363;28;20195;-65
2022/03/10 07:41:31;;;;;;;9.37;5.97;;;;;;;0.64;76.70;95342.59;5032669;28;20191;-65
2022/03/10 07:44:17;;;;;;;12.20;5.80;;;;;;;0.90;74.54;95344.94;5025266;28;20620;-61
2022/03/10 07:47:03;;;;;;;9.40;6.00;;;;;;;1.15;71.52;95357.19;5031509;28;20714;-61
2022/03/10 07:49:49;;;;;;;9.53;6.03;;;;;;;1.33;68.05;95349.09;5013749;28;20195;-61
2022/03/10 07:52:35;;;;;;;8.23;5.50;;;;;;;1.63;66.56;95346.72;5002408;28;20836;-61
2022/03/10 07:55:21;;;;;;;7.47;5.17;;;;;;;1.82;64.27;95340.91;5028572;28;20223;-61
2022/03/10 07:58:07;;;;;;;10.70;6.33;;;;;;;2.10;62.79;95335.44;5026762;28;20643;-61
2022/03/10 08:00:57;;;;;;;9.10;6.17;;;;;;;2.33;62.20;95332.22;5033181;28;20230;-63
2022/03/10 08:03:46;;;;;;;9.33;6.57;;;;;;;2.59;62.78;95325.50;5016301;28;20187;-61
2022/03/10 08:06:32;;;;;;;12.20;6.67;;;;;;;2.67;65.90;95329.69;5000864;28;20202;-62
2022/03/10 08:09:20;;;;;;;11.17;6.87;;;;;;;2.75;68.26;95323.84;5009109;28;20198;-62
2022/03/10 08:12:07;;;;;;;14.93;7.73;;;;;;;2.85;68.67;95331.09;5025497;28;20191;-61
2022/03/10 08:14:53;;;;;;;15.33;7.63;;;;;;;3.06;69.04;95322.06;5027243;28;20234;-62
2022/03/10 08:17:39;;;;;;;15.17;8.43;;;;;;;3.28;69.03;95324.19;5029553;28;20264;-62
2022/03/10 08:20:25;;;;;;;11.93;8.10;;;;;;;3.52;67.83;95317.78;5031419;28;20278;-62
2022/03/10 08:23:11;;;;;;;14.10;7.33;;;;;;;3.81;67.29;95323.66;5022061;28;20670;-62
2022/03/10 08:25:57;;;;;;;13.03;7.93;;;;;;;4.03;65.91;95322.22;5019678;28;20305;-61
2022/03/10 08:28:44;;;;;;;10.27;6.60;;;;;;;4.25;61.94;95320.81;5024385;28;20637;-62
2022/03/10 08:31:30;;;;;;;11.30;5.70;;;;;;;4.32;58.04;95312.59;5019109;28;20191;-62
2022/03/10 08:34:16;;;;;;;10.93;6.67;;;;;;;4.56;58.06;95321.53;5027003;28;20679;-62
2022/03/10 08:37:03;;;;;;;10.67;6.37;;;;;;;4.81;56.92;95320.00;5024380;28;20196;-62
2022/03/10 08:39:49;;;;;;;13.47;6.97;;;;;;;4.98;58.36;95307.38;5015946;28;20198;-62
2022/03/10 08:42:35;;;;;;;11.57;7.13;;;;;;;5.12;55.56;95315.28;5024620;28;20201;-62
2022/03/10 08:45:25;;;;;;;8.53;6.00;;;;;;;5.39;54.84;95312.50;5030662;28;20211;-62
2022/03/10 08:48:11;;;;;;;11.33;6.60;;;;;;;5.67;54.27;95304.63;5016184;28;20210;-65
2022/03/10 08:50:56;;;;;;;7.97;6.33;;;;;;;5.93;54.72;95308.41;5027066;28;20302;-65
2022/03/10 08:53:42;;;;;;;9.23;5.00;;;;;;;6.35;51.77;95296.69;5029746;28;20658;-65
2022/03/10 08:56:28;;;;;;;9.73;5.43;;;;;;;6.57;52.44;95294.28;5029091;28;20195;-65
2022/03/10 08:59:14;;;;;;;8.33;4.40;;;;;;;6.77;49.17;95293.03;5018871;28;20210;-65
2022/03/10 09:02:00;;;;;;;5.50;3.90;;;;;;;6.95;47.94;95289.94;5017849;28;20253;-65
2022/03/10 09:04:46;;;;;;;4.13;3.23;;;;;;;7.13;45.97;95301.88;5027853;28;20545;-65
2022/03/10 09:07:32;;;;;;;4.33;3.37;;;;;;;7.38;45.42;95285.00;5037370;28;20271;-65
2022/03/10 09:10:18;;;;;;;4.17;3.10;;;;;;;7.75;44.73;95291.78;5025916;28;20292;-65
2022/03/10 09:13:05;;;;;;;4.17;3.13;;;;;;;7.88;42.47;95284.41;5029199;28;20268;-65
2022/03/10 09:15:51;;;;;;;4.57;3.00;;;;;;;7.78;42.27;95272.66;5030929;28;20250;-65
2022/03/10 09:18:37;;;;;;;8.47;3.20;;;;;;;7.99;43.32;95282.94;5031324;28;20190;-65
2022/03/10 09:21:24;;;;;;;4.90;3.07;;;;;;;8.27;43.11;95278.69;5016111;28;20261;-65
2022/03/10 09:24:10;;;;;;;4.40;3.40;;;;;;;8.48;43.02;95278.81;5029349;28;20221;-65
2022/03/10 09:26:56;;;;;;;6.67;3.03;;;;;;;8.40;41.50;95276.72;5034524;28;20529;-65
2022/03/10 09:29:42;;;;;;;4.13;2.93;;;;;;;8.40;41.30;95282.94;5029510;28;20717;-65
2022/03/10 09:32:35;;;;;;;7.20;3.20;;;;;;;8.50;41.85;95281.13;5030205;28;20195;-65
2022/03/10 09:35:21;;;;;;;5.97;3.30;;;;;;;8.77;41.40;95273.31;5022667;28;20216;-65
2022/03/10 09:38:08;;;;;;;5.97;3.23;;;;;;;8.77;40.71;95276.03;5028124;28;20657;-65
2022/03/10 09:40:54;;;;;;;4.67;3.30;;;;;;;8.87;40.24;95280.38;5030660;28;20336;-65
2022/03/10 09:43:40;;;;;;;5.77;3.50;;;;;;;8.99;40.97;95270.66;5025603;28;20287;-65
2022/03/10 09:46:26;;;;;;;5.70;3.43;;;;;;;9.07;40.59;95275.44;5020092;28;20281;-65
2022/03/10 09:49:12;;;;;;;10.00;4.20;;;;;;;9.31;40.31;95284.78;5015077;28;20215;-65
2022/03/10 09:51:58;;;;;;;5.07;3.57;;;;;;;9.49;40.43;95276.78;5030901;28;20340;-65
2022/03/10 09:54:44;;;;;;;4.70;3.80;;;;;;;9.71;39.67;95279.53;5012336;28;20771;-65
2022/03/10 09:57:30;;;;;;;5.33;3.40;;;;;;;9.59;39.67;95275.66;5018888;28;20192;-62
2022/03/10 10:00:17;;;;;;;4.20;3.17;;;;;;;9.89;38.79;95279.69;5000392;28;20281;-65
2022/03/10 10:03:04;;;;;;;4.70;3.60;;;;;;;9.75;38.69;95282.91;5028527;28;20203;-65
2022/03/10 10:05:49;;;;;;;3.80;3.13;;;;;;;9.68;38.48;95277.69;5024910;28;20226;-65
2022/03/10 10:08:38;;;;;;;5.43;3.03;;;;;;;9.86;38.24;95279.81;5026945;28;20245;-65
2022/03/10 10:11:34;;;;;;;6.37;3.80;;;;;;;9.81;37.95;95281.13;5017262;28;20210;-65
2022/03/10 10:14:37;;;;;;;6.47;3.50;;;;;;;9.87;37.73;95276.66;4995899;28;20222;-65
2022/03/10 10:17:32;;;;;;;3.60;3.10;;;;;;;9.88;37.44;95280.13;5017554;28;20192;-66
2022/03/10 10:20:18;;;;;;;7.47;3.13;;;;;;;10.12;37.33;95279.28;5024820;28;20718;-66
2022/03/10 10:23:22;;;;;;;3.20;2.80;;;;;;;10.14;36.44;95290.53;5028596;28;20211;-66
2022/03/10 10:26:13;;;;;;;5.37;2.90;;;;;;;9.87;36.00;95276.66;5011697;28;20621;-65
2022/03/10 10:29:04;;;;;;;4.40;3.00;;;;;;;10.15;36.29;95281.13;5017945;28;20303;-65
2022/03/10 10:31:50;;;;;;;4.40;3.20;;;;;;;10.27;35.88;95280.28;5028305;28;20193;-65
2022/03/10 10:34:35;;;;;;;5.47;3.33;;;;;;;10.10;36.28;95284.41;5013123;28;20214;-65
2022/03/10 10:37:22;;;;;;;5.70;4.33;;;;;;;10.03;36.54;95275.72;5011339;28;20286;-66
2022/03/10 10:40:09;;;;;;;4.37;3.57;;;;;;;10.18;36.30;95268.56;5011287;28;20748;-66
2022/03/10 10:42:56;;;;;;;5.13;3.07;;;;;;;10.44;36.11;95264.44;5026555;28;20195;-66
2022/03/10 10:45:42;;;;;;;6.07;4.00;;;;;;;10.13;36.25;95271.84;5007771;28;20301;-66
2022/03/10 10:48:28;;;;;;;8.00;3.00;;;;;;;10.08;36.46;95266.94;5028964;28;20222;-66
2022/03/10 10:51:14;;;;;;;6.47;3.47;;;;;;;10.13;35.92;95264.41;5012881;28;20553;-66
2022/03/10 10:54:03;;;;;;;4.20;3.10;;;;;;;10.26;36.12;95264.34;5027336;28;20337;-66
2022/03/10 10:56:55;;;;;;;5.30;3.90;;;;;;;10.13;35.87;95258.94;5026143;28;20256;-66
2022/03/10 10:59:43;;;;;;;4.47;2.87;;;;;;;10.00;36.06;95247.31;5025716;28;20222;-66
2022/03/10 11:02:29;;;;;;;4.57;2.80;;;;;;;10.20;35.87;95244.31;5014001;28;20358;-67
2022/03/10 11:05:15;;;;;;;3.90;2.93;;;;;;;10.09;35.58;95238.47;5026404;28;20245;-66
2022/03/10 11:08:02;;;;;;;6.17;3.57;;;;;;;10.13;35.77;95233.66;5024078;28;20219;-62
2022/03/10 11:10:49;;;;;;;5.43;3.60;;;;;;;10.22;35.72;95237.19;5028958;28;20194;-62
2022/03/10 11:13:35;;;;;;;4.37;3.10;;;;;;;10.42;35.63;95231.38;5029170;28;20191;-62
2022/03/10 11:16:20;;;;;;;3.37;2.60;;;;;;;10.21;34.81;95238.41;5023672;28;20215;-66
2022/03/10 11:19:07;;;;;;;4.87;2.80;;;;;;;10.10;34.65;95240.75;5013996;28;20203;-66
2022/03/10 11:21:57;;;;;;;3.40;2.53;;;;;;;10.34;35.23;95225.41;5020991;28;20662;-62
2022/03/10 11:25:08;;;;;;;3.20;2.67;;;;;;;10.51;34.77;95223.22;5022896;28;20212;-62
2022/03/10 11:27:56;;;;;;;11.80;2.47;;;;;;;10.94;34.87;95221.09;5028783;28;20211;-62
2022/03/10 11:30:53;;;;;;;3.17;2.20;;;;;;;11.04;34.06;95216.44;5016071;28;20198;-63
2022/03/10 11:33:39;;;;;;;3.43;2.30;;;;;;;10.82;34.26;95219.25;5016310;28;20200;-63
2022/03/10 11:36:33;;;;;;;6.63;2.77;;;;;;;10.82;33.95;95222.00;5029419;28;20219;-62
2022/03/10 11:39:23;;;;;;;3.67;2.73;;;;;;;11.00;34.80;95204.88;5028088;28;20187;-62
2022/03/10 11:42:26;;;;;;;3.27;2.60;;;;;;;11.10;34.40;95200.94;5016605;28;20292;-63
2022/03/10 11:45:21;;;;;;;6.60;3.00;;;;;;;11.06;34.09;95205.81;5029991;28;20300;-66
2022/03/10 11:48:22;;;;;;;5.10;3.20;;;;;;;10.96;34.47;95199.53;5017890;28;20247;-66
2022/03/10 11:51:10;;;;;;;3.73;2.73;;;;;;;11.14;34.30;95195.31;5030448;28;20548;-66
2022/03/10 11:53:58;;;;;;;4.03;2.67;;;;;;;11.28;34.38;95200.97;5027916;28;20199;-66
2022/03/10 11:56:44;;;;;;;3.53;2.93;;;;;;;11.07;33.86;95196.38;5027560;28;20658;-66
2022/03/10 11:59:34;;;;;;;3.30;2.77;;;;;;;11.23;33.77;95187.16;5016412;28;20202;-63
2022/03/10 12:02:43;;;;;;;3.20;2.90;;;;;;;11.03;33.60;95184.09;5031580;28;20187;-63
2022/03/10 12:05:52;;;;;;;3.60;2.50;;;;;;;11.17;33.36;95180.75;5014770;28;20219;-63
2022/03/10 12:08:40;;;;;;;2.83;2.10;;;;;;;11.28;32.94;95176.38;5040573;28;20237;-62
2022/03/10 12:11:47;;;;;;;3.33;2.33;;;;;;;11.54;32.35;95183.06;5011854;28;20297;-63
2022/03/10 12:14:34;;;;;;;3.70;2.37;;;;;;;11.35;32.18;95183.50;5030059;28;20264;-65
2022/03/10 12:17:44;;;;;;;16.87;2.80;;;;;;;11.14;32.11;95173.47;5028686;28;20219;-66
2022/03/10 12:20:39;;;;;;;3.93;2.50;;;;;;;11.08;32.20;95165.09;5028347;28;20222;-63
2022/03/10 12:23:27;;;;;;;2.90;2.60;;;;;;;11.09;32.33;95166.63;5027114;28;20195;-63
2022/03/10 12:26:14;;;;;;;3.53;2.30;;;;;;;11.19;31.28;95168.16;4997414;28;20219;-62
2022/03/10 12:29:09;;;;;;;4.47;2.30;;;;;;;11.05;30.30;95166.00;5018027;28;20211;-63
2022/03/10 12:32:03;;;;;;;2.47;2.00;;;;;;;11.22;30.21;95166.47;4997699;28;20218;-66
2022/03/10 12:34:49;;;;;;;3.23;2.40;;;;;;;11.32;30.46;95160.56;5024678;28;20301;-66
2022/03/10 12:37:35;;;;;;;4.63;2.47;;;;;;;11.32;30.54;95154.34;5027448;28;20610;-63
2022/03/10 12:40:25;;;;;;;4.43;3.07;;;;;;;11.15;31.26;95158.59;5026333;28;20195;-63
2022/03/10 12:43:11;;;;;;;5.30;2.80;;;;;;;11.10;30.90;95148.25;5033657;28;20261;-66
2022/03/10 12:45:58;;;;;;;5.97;2.97;;;;;;;11.42;31.07;95142.19;5028447;28;20260;-66
2022/03/10 12:49:03;;;;;;;6.77;2.80;;;;;;;11.60;30.71;95140.22;5023182;28;20226;-66
2022/03/10 12:51:50;;;;;;;5.70;2.93;;;;;;;11.66;30.67;95132.16;5030563;28;20263;-65
2022/03/10 12:54:41;;;;;;;8.07;2.77;;;;;;;11.76;31.26;95131.69;5012676;28;20219;-65
2022/03/10 12:57:28;;;;;;;2.90;2.50;;;;;;;11.89;30.98;95126.81;5025594;28;20195;-66
2022/03/10 13:00:21;;;;;;;3.47;2.80;;;;;;;11.81;29.70;95128.31;5034639;28;20187;-65
2022/03/10 13:03:07;;;;;;;3.07;2.77;;;;;;;11.72;30.03;95117.41;5024901;28;20210;-66
2022/03/10 13:05:53;;;;;;;3.23;2.87;;;;;;;11.77;30.33;95116.81;4998837;28;20242;-66
2022/03/10 13:08:42;;;;;;;6.03;3.53;;;;;;;11.80;30.73;95104.16;5011629;28;20215;-66
2022/03/10 13:11:31;;;;;;;4.93;3.17;;;;;;;11.65;30.13;95114.22;5028447;28;20199;-65